sensor_id;sensor_type;location;lat;lon;timestamp;P1;durP1;ratioP1;P2;durP2;ratioP2
11618;SDS011;5865;48.776;9.280;2022-09-01T00:01:37;16.47;;;13.83;;
11618;SDS011;5865;48.776;9.280;2022-09-01T00:04:07;17.33;;;14.23;;
11618;SDS011;5865;48.776;9.280;2022-09-01T00:06:38;16.50;;;14.53;;
11618;SDS011;5865;48.776;9.280;2022-09-01T00:09:07;15.00;;;13.47;;
11618;SDS011;5865;48.776;9.280;2022-09-01T00:11:36;18.60;;;16.60;;
11618;SDS011;5865;48.776;9.280;2022-09-01T00:14:04;16.93;;;14.40;;
11618;SDS011;5865;48.776;9.280;2022-09-01T00:16:33;16.67;;;14.17;;
11618;SDS011;5865;48.776;9.280;2022-09-01T00:19:00;16.37;;;14.60;;
11618;SDS011;5865;48.776;9.280;2022-09-01T00:21:29;17.03;;;15.10;;
11618;SDS011;5865;48.776;9.280;2022-09-01T00:23:59;16.43;;;14.83;;
11618;SDS011;5865;48.776;9.280;2022-09-01T00:26:27;15.77;;;14.17;;
11618;SDS011;5865;48.776;9.280;2022-09-01T00:28:56;16.57;;;14.10;;
11618;SDS011;5865;48.776;9.280;2022-09-01T00:31:24;15.83;;;14.23;;
11618;SDS011;5865;48.776;9.280;2022-09-01T00:33:52;14.37;;;12.90;;
11618;SDS011;5865;48.776;9.280;2022-09-01T00:36:20;15.67;;;13.97;;
11618;SDS011;5865;48.776;9.280;2022-09-01T00:38:47;17.87;;;15.67;;
11618;SDS011;5865;48.776;9.280;2022-09-01T00:41:18;16.57;;;14.47;;
11618;SDS011;5865;48.776;9.280;2022-09-01T00:43:48;15.53;;;14.03;;
11618;SDS011;5865;48.776;9.280;2022-09-01T00:46:18;15.10;;;13.43;;
11618;SDS011;5865;48.776;9.280;2022-09-01T00:48:50;16.70;;;14.97;;
11618;SDS011;5865;48.776;9.280;2022-09-01T00:51:21;15.73;;;13.97;;
11618;SDS011;5865;48.776;9.280;2022-09-01T00:53:49;17.47;;;14.17;;
11618;SDS011;5865;48.776;9.280;2022-09-01T00:56:18;17.70;;;14.60;;
11618;SDS011;5865;48.776;9.280;2022-09-01T00:58:46;15.60;;;13.70;;
11618;SDS011;5865;48.776;9.280;2022-09-01T01:01:13;16.80;;;15.13;;
11618;SDS011;5865;48.776;9.280;2022-09-01T01:03:41;17.50;;;14.63;;
11618;SDS011;5865;48.776;9.280;2022-09-01T01:06:11;17.53;;;15.47;;
11618;SDS011;5865;48.776;9.280;2022-09-01T01:08:41;17.30;;;14.67;;
11618;SDS011;5865;48.776;9.280;2022-09-01T01:11:17;18.47;;;16.47;;
11618;SDS011;5865;48.776;9.280;2022-09-01T01:13:48;17.00;;;15.20;;
11618;SDS011;5865;48.776;9.280;2022-09-01T01:16:19;16.87;;;14.87;;
11618;SDS011;5865;48.776;9.280;2022-09-01T01:18:46;17.17;;;15.30;;
11618;SDS011;5865;48.776;9.280;2022-09-01T01:21:17;16.33;;;14.20;;
11618;SDS011;5865;48.776;9.280;2022-09-01T01:24:05;17.47;;;15.50;;
11618;SDS011;5865;48.776;9.280;2022-09-01T01:26:41;17.87;;;15.97;;
11618;SDS011;5865;48.776;9.280;2022-09-01T01:29:09;18.00;;;15.50;;
11618;SDS011;5865;48.776;9.280;2022-09-01T01:31:36;17.43;;;15.57;;
11618;SDS011;5865;48.776;9.280;2022-09-01T01:34:04;16.33;;;14.70;;
11618;SDS011;5865;48.776;9.280;2022-09-01T01:36:33;18.03;;;16.13;;
11618;SDS011;5865;48.776;9.280;2022-09-01T01:39:04;16.63;;;14.87;;
11618;SDS011;5865;48.776;9.280;2022-09-01T01:41:36;16.40;;;13.97;;
11618;SDS011;5865;48.776;9.280;2022-09-01T01:44:09;17.27;;;15.50;;
11618;SDS011;5865;48.776;9.280;2022-09-01T01:46:39;17.60;;;15.40;;
11618;SDS011;5865;48.776;9.280;2022-09-01T01:49:11;19.60;;;16.77;;
11618;SDS011;5865;48.776;9.280;2022-09-01T01:51:43;18.13;;;15.77;;
11618;SDS011;5865;48.776;9.280;2022-09-01T01:54:11;19.33;;;16.50;;
11618;SDS011;5865;48.776;9.280;2022-09-01T01:56:40;18.57;;;16.57;;
11618;SDS011;5865;48.776;9.280;2022-09-01T01:59:09;20.17;;;16.00;;
11618;SDS011;5865;48.776;9.280;2022-09-01T02:01:40;20.63;;;17.57;;
11618;SDS011;5865;48.776;9.280;2022-09-01T02:04:13;17.57;;;15.70;;
11618;SDS011;5865;48.776;9.280;2022-09-01T02:06:41;18.10;;;16.30;;
11618;SDS011;5865;48.776;9.280;2022-09-01T02:09:10;19.97;;;17.73;;
11618;SDS011;5865;48.776;9.280;2022-09-01T02:11:39;19.27;;;17.20;;
11618;SDS011;5865;48.776;9.280;2022-09-01T02:14:09;16.63;;;14.57;;
11618;SDS011;5865;48.776;9.280;2022-09-01T02:16:38;19.00;;;16.33;;
11618;SDS011;5865;48.776;9.280;2022-09-01T02:19:06;19.13;;;16.60;;
11618;SDS011;5865;48.776;9.280;2022-09-01T02:21:36;16.50;;;14.80;;
11618;SDS011;5865;48.776;9.280;2022-09-01T02:24:14;18.07;;;16.17;;
11618;SDS011;5865;48.776;9.280;2022-09-01T02:26:42;17.77;;;15.63;;
11618;SDS011;5865;48.776;9.280;2022-09-01T02:29:15;16.80;;;14.70;;
11618;SDS011;5865;48.776;9.280;2022-09-01T02:31:46;21.03;;;17.07;;
11618;SDS011;5865;48.776;9.280;2022-09-01T02:34:16;17.17;;;14.50;;
11618;SDS011;5865;48.776;9.280;2022-09-01T02:36:46;16.43;;;14.73;;
11618;SDS011;5865;48.776;9.280;2022-09-01T02:39:20;19.07;;;15.43;;
11618;SDS011;5865;48.776;9.280;2022-09-01T02:41:49;18.13;;;16.23;;
11618;SDS011;5865;48.776;9.280;2022-09-01T02:44:24;18.97;;;16.60;;
11618;SDS011;5865;48.776;9.280;2022-09-01T02:46:54;17.77;;;15.87;;
11618;SDS011;5865;48.776;9.280;2022-09-01T02:49:26;19.33;;;16.60;;
11618;SDS011;5865;48.776;9.280;2022-09-01T02:51:54;18.43;;;15.50;;
11618;SDS011;5865;48.776;9.280;2022-09-01T02:54:26;16.63;;;14.87;;
11618;SDS011;5865;48.776;9.280;2022-09-01T02:56:55;16.80;;;15.10;;
11618;SDS011;5865;48.776;9.280;2022-09-01T02:59:25;17.00;;;15.20;;
11618;SDS011;5865;48.776;9.280;2022-09-01T03:01:58;18.23;;;16.23;;
11618;SDS011;5865;48.776;9.280;2022-09-01T03:04:25;17.33;;;15.30;;
11618;SDS011;5865;48.776;9.280;2022-09-01T03:06:59;17.73;;;14.90;;
11618;SDS011;5865;48.776;9.280;2022-09-01T03:09:26;16.43;;;14.73;;
11618;SDS011;5865;48.776;9.280;2022-09-01T03:11:54;16.73;;;14.80;;
11618;SDS011;5865;48.776;9.280;2022-09-01T03:14:24;18.10;;;15.07;;
11618;SDS011;5865;48.776;9.280;2022-09-01T03:16:54;18.30;;;16.10;;
11618;SDS011;5865;48.776;9.280;2022-09-01T03:19:21;17.63;;;15.63;;
11618;SDS011;5865;48.776;9.280;2022-09-01T03:21:49;15.43;;;13.80;;
11618;SDS011;5865;48.776;9.280;2022-09-01T03:24:21;17.53;;;15.60;;
11618;SDS011;5865;48.776;9.280;2022-09-01T03:26:50;16.17;;;14.13;;
11618;SDS011;5865;48.776;9.280;2022-09-01T03:29:18;16.77;;;14.00;;
11618;SDS011;5865;48.776;9.280;2022-09-01T03:31:47;16.30;;;14.07;;
11618;SDS011;5865;48.776;9.280;2022-09-01T03:34:15;15.57;;;13.90;;
11618;SDS011;5865;48.776;9.280;2022-09-01T03:36:49;17.53;;;14.83;;
11618;SDS011;5865;48.776;9.280;2022-09-01T03:39:24;19.67;;;16.53;;
11618;SDS011;5865;48.776;9.280;2022-09-01T03:41:52;16.67;;;14.97;;
11618;SDS011;5865;48.776;9.280;2022-09-01T03:44:22;17.00;;;15.20;;
11618;SDS011;5865;48.776;9.280;2022-09-01T03:46:51;17.37;;;15.57;;
11618;SDS011;5865;48.776;9.280;2022-09-01T03:49:19;20.37;;;15.77;;
11618;SDS011;5865;48.776;9.280;2022-09-01T03:51:50;17.93;;;14.60;;
11618;SDS011;5865;48.776;9.280;2022-09-01T03:54:18;18.87;;;15.70;;
11618;SDS011;5865;48.776;9.280;2022-09-01T03:56:49;19.30;;;15.47;;
11618;SDS011;5865;48.776;9.280;2022-09-01T03:59:16;17.93;;;16.07;;
11618;SDS011;5865;48.776;9.280;2022-09-01T04:01:45;18.60;;;15.87;;
11618;SDS011;5865;48.776;9.280;2022-09-01T04:04:15;15.17;;;13.67;;
11618;SDS011;5865;48.776;9.280;2022-09-01T04:06:43;17.20;;;14.67;;
11618;SDS011;5865;48.776;9.280;2022-09-01T04:09:13;19.23;;;16.50;;
11618;SDS011;5865;48.776;9.280;2022-09-01T04:11:43;16.53;;;14.03;;
11618;SDS011;5865;48.776;9.280;2022-09-01T04:14:15;18.83;;;16.40;;
11618;SDS011;5865;48.776;9.280;2022-09-01T04:16:45;17.73;;;14.67;;
11618;SDS011;5865;48.776;9.280;2022-09-01T04:19:34;14.83;;;13.23;;
11618;SDS011;5865;48.776;9.280;2022-09-01T04:22:03;17.30;;;14.80;;
11618;SDS011;5865;48.776;9.280;2022-09-01T04:24:37;19.97;;;16.13;;
11618;SDS011;5865;48.776;9.280;2022-09-01T04:27:06;20.40;;;16.37;;
11618;SDS011;5865;48.776;9.280;2022-09-01T04:29:35;20.13;;;17.13;;
11618;SDS011;5865;48.776;9.280;2022-09-01T04:32:04;20.67;;;16.97;;
11618;SDS011;5865;48.776;9.280;2022-09-01T04:34:40;20.27;;;15.83;;
11618;SDS011;5865;48.776;9.280;2022-09-01T04:37:10;16.73;;;13.80;;
11618;SDS011;5865;48.776;9.280;2022-09-01T04:39:40;20.43;;;17.30;;
11618;SDS011;5865;48.776;9.280;2022-09-01T04:42:13;21.57;;;16.77;;
11618;SDS011;5865;48.776;9.280;2022-09-01T04:44:42;24.50;;;18.50;;
11618;SDS011;5865;48.776;9.280;2022-09-01T04:47:11;21.07;;;17.00;;
11618;SDS011;5865;48.776;9.280;2022-09-01T04:49:42;17.97;;;14.50;;
11618;SDS011;5865;48.776;9.280;2022-09-01T04:52:12;20.13;;;16.27;;
11618;SDS011;5865;48.776;9.280;2022-09-01T04:54:40;17.03;;;14.93;;
11618;SDS011;5865;48.776;9.280;2022-09-01T04:57:10;20.37;;;15.93;;
11618;SDS011;5865;48.776;9.280;2022-09-01T04:59:37;20.67;;;16.13;;
11618;SDS011;5865;48.776;9.280;2022-09-01T05:02:05;17.97;;;15.10;;
11618;SDS011;5865;48.776;9.280;2022-09-01T05:04:33;19.03;;;16.07;;
11618;SDS011;5865;48.776;9.280;2022-09-01T05:07:03;18.80;;;16.20;;
11618;SDS011;5865;48.776;9.280;2022-09-01T05:09:35;20.73;;;16.37;;
11618;SDS011;5865;48.776;9.280;2022-09-01T05:12:18;17.83;;;15.73;;
11618;SDS011;5865;48.776;9.280;2022-09-01T05:14:46;17.47;;;14.83;;
11618;SDS011;5865;48.776;9.280;2022-09-01T05:17:21;18.13;;;16.07;;
11618;SDS011;5865;48.776;9.280;2022-09-01T05:20:06;19.10;;;15.37;;
11618;SDS011;5865;48.776;9.280;2022-09-01T05:22:40;17.43;;;15.53;;
11618;SDS011;5865;48.776;9.280;2022-09-01T05:25:07;19.03;;;16.73;;
11618;SDS011;5865;48.776;9.280;2022-09-01T05:27:41;16.43;;;14.67;;
11618;SDS011;5865;48.776;9.280;2022-09-01T05:30:15;17.30;;;15.53;;
11618;SDS011;5865;48.776;9.280;2022-09-01T05:32:44;20.87;;;16.50;;
11618;SDS011;5865;48.776;9.280;2022-09-01T05:35:12;18.20;;;15.77;;
11618;SDS011;5865;48.776;9.280;2022-09-01T05:37:41;18.53;;;16.37;;
11618;SDS011;5865;48.776;9.280;2022-09-01T05:40:09;16.50;;;14.80;;
11618;SDS011;5865;48.776;9.280;2022-09-01T05:42:41;15.13;;;13.50;;
11618;SDS011;5865;48.776;9.280;2022-09-01T05:45:09;16.97;;;15.27;;
11618;SDS011;5865;48.776;9.280;2022-09-01T05:47:37;17.43;;;15.47;;
11618;SDS011;5865;48.776;9.280;2022-09-01T05:50:07;14.83;;;13.33;;
11618;SDS011;5865;48.776;9.280;2022-09-01T05:52:37;15.00;;;13.47;;
11618;SDS011;5865;48.776;9.280;2022-09-01T05:55:07;17.20;;;15.33;;
11618;SDS011;5865;48.776;9.280;2022-09-01T05:57:38;15.23;;;13.33;;
11618;SDS011;5865;48.776;9.280;2022-09-01T06:00:07;20.42;;;15.35;;
11618;SDS011;5865;48.776;9.280;2022-09-01T06:02:38;15.97;;;13.80;;
11618;SDS011;5865;48.776;9.280;2022-09-01T06:05:08;12.90;;;11.57;;
11618;SDS011;5865;48.776;9.280;2022-09-01T06:07:38;15.00;;;13.05;;
11618;SDS011;5865;48.776;9.280;2022-09-01T06:10:11;14.93;;;12.45;;
11618;SDS011;5865;48.776;9.280;2022-09-01T06:12:39;14.27;;;12.80;;
11618;SDS011;5865;48.776;9.280;2022-09-01T06:15:07;15.13;;;13.52;;
11618;SDS011;5865;48.776;9.280;2022-09-01T06:17:41;17.02;;;15.30;;
11618;SDS011;5865;48.776;9.280;2022-09-01T06:20:10;16.58;;;14.65;;
11618;SDS011;5865;48.776;9.280;2022-09-01T06:22:40;21.15;;;17.60;;
11618;SDS011;5865;48.776;9.280;2022-09-01T06:25:09;17.17;;;14.85;;
11618;SDS011;5865;48.776;9.280;2022-09-01T06:27:41;16.90;;;15.20;;
11618;SDS011;5865;48.776;9.280;2022-09-01T06:30:10;16.90;;;14.55;;
11618;SDS011;5865;48.776;9.280;2022-09-01T06:32:44;21.08;;;17.55;;
11618;SDS011;5865;48.776;9.280;2022-09-01T06:35:14;20.13;;;17.02;;
11618;SDS011;5865;48.776;9.280;2022-09-01T06:37:42;18.88;;;16.88;;
11618;SDS011;5865;48.776;9.280;2022-09-01T06:40:18;21.33;;;17.55;;
11618;SDS011;5865;48.776;9.280;2022-09-01T06:42:45;17.88;;;14.98;;
11618;SDS011;5865;48.776;9.280;2022-09-01T06:45:15;15.20;;;13.35;;
11618;SDS011;5865;48.776;9.280;2022-09-01T06:47:45;17.02;;;14.27;;
11618;SDS011;5865;48.776;9.280;2022-09-01T06:50:16;15.93;;;13.65;;
11618;SDS011;5865;48.776;9.280;2022-09-01T06:52:46;17.33;;;13.02;;
11618;SDS011;5865;48.776;9.280;2022-09-01T06:55:14;16.25;;;13.43;;
11618;SDS011;5865;48.776;9.280;2022-09-01T06:57:44;16.42;;;13.60;;
11618;SDS011;5865;48.776;9.280;2022-09-01T07:00:19;14.70;;;12.07;;
11618;SDS011;5865;48.776;9.280;2022-09-01T07:02:51;14.27;;;12.82;;
11618;SDS011;5865;48.776;9.280;2022-09-01T07:05:37;12.73;;;11.38;;
11618;SDS011;5865;48.776;9.280;2022-09-01T07:08:05;14.63;;;12.43;;
11618;SDS011;5865;48.776;9.280;2022-09-01T07:10:56;11.70;;;10.57;;
11618;SDS011;5865;48.776;9.280;2022-09-01T07:13:25;13.95;;;12.23;;
11618;SDS011;5865;48.776;9.280;2022-09-01T07:15:52;13.98;;;11.38;;
11618;SDS011;5865;48.776;9.280;2022-09-01T07:18:23;11.15;;;8.82;;
11618;SDS011;5865;48.776;9.280;2022-09-01T07:20:51;11.00;;;9.82;;
11618;SDS011;5865;48.776;9.280;2022-09-01T07:23:20;14.75;;;11.40;;
11618;SDS011;5865;48.776;9.280;2022-09-01T07:25:50;10.77;;;9.40;;
11618;SDS011;5865;48.776;9.280;2022-09-01T07:28:29;9.40;;;8.50;;
11618;SDS011;5865;48.776;9.280;2022-09-01T07:30:58;10.25;;;8.55;;
11618;SDS011;5865;48.776;9.280;2022-09-01T07:33:26;9.55;;;8.65;;
11618;SDS011;5865;48.776;9.280;2022-09-01T07:35:57;8.40;;;7.60;;
11618;SDS011;5865;48.776;9.280;2022-09-01T07:38:24;8.35;;;7.35;;
11618;SDS011;5865;48.776;9.280;2022-09-01T07:40:53;8.25;;;7.45;;
11618;SDS011;5865;48.776;9.280;2022-09-01T07:43:41;8.93;;;8.02;;
11618;SDS011;5865;48.776;9.280;2022-09-01T07:46:21;8.48;;;7.68;;
11618;SDS011;5865;48.776;9.280;2022-09-01T07:48:51;7.53;;;6.82;;
11618;SDS011;5865;48.776;9.280;2022-09-01T07:51:21;7.85;;;7.05;;
11618;SDS011;5865;48.776;9.280;2022-09-01T07:53:51;7.53;;;6.82;;
11618;SDS011;5865;48.776;9.280;2022-09-01T07:56:21;8.13;;;7.22;;
11618;SDS011;5865;48.776;9.280;2022-09-01T07:58:51;8.65;;;7.75;;
11618;SDS011;5865;48.776;9.280;2022-09-01T08:01:22;8.57;;;7.72;;
11618;SDS011;5865;48.776;9.280;2022-09-01T08:03:52;7.68;;;6.97;;
11618;SDS011;5865;48.776;9.280;2022-09-01T08:06:21;8.98;;;7.70;;
11618;SDS011;5865;48.776;9.280;2022-09-01T08:08:51;8.63;;;7.80;;
11618;SDS011;5865;48.776;9.280;2022-09-01T08:11:22;7.80;;;7.00;;
11618;SDS011;5865;48.776;9.280;2022-09-01T08:13:54;7.57;;;6.80;;
11618;SDS011;5865;48.776;9.280;2022-09-01T08:16:24;7.90;;;7.20;;
11618;SDS011;5865;48.776;9.280;2022-09-01T08:18:53;8.20;;;7.40;;
11618;SDS011;5865;48.776;9.280;2022-09-01T08:21:52;8.32;;;7.53;;
11618;SDS011;5865;48.776;9.280;2022-09-01T08:24:25;8.70;;;7.05;;
11618;SDS011;5865;48.776;9.280;2022-09-01T08:26:52;7.82;;;7.03;;
11618;SDS011;5865;48.776;9.280;2022-09-01T08:29:20;7.88;;;6.80;;
11618;SDS011;5865;48.776;9.280;2022-09-01T08:31:48;9.20;;;5.93;;
11618;SDS011;5865;48.776;9.280;2022-09-01T08:34:15;7.13;;;6.40;;
11618;SDS011;5865;48.776;9.280;2022-09-01T08:36:44;6.88;;;6.28;;
11618;SDS011;5865;48.776;9.280;2022-09-01T08:39:11;7.13;;;6.43;;
11618;SDS011;5865;48.776;9.280;2022-09-01T08:41:40;6.10;;;5.60;;
11618;SDS011;5865;48.776;9.280;2022-09-01T08:44:13;6.50;;;5.90;;
11618;SDS011;5865;48.776;9.280;2022-09-01T08:46:51;6.07;;;5.47;;
11618;SDS011;5865;48.776;9.280;2022-09-01T08:49:24;6.90;;;6.00;;
11618;SDS011;5865;48.776;9.280;2022-09-01T08:52:10;7.00;;;6.40;;
11618;SDS011;5865;48.776;9.280;2022-09-01T08:54:45;7.20;;;6.50;;
11618;SDS011;5865;48.776;9.280;2022-09-01T08:57:16;6.97;;;6.28;;
11618;SDS011;5865;48.776;9.280;2022-09-01T09:00:26;6.35;;;5.78;;
11618;SDS011;5865;48.776;9.280;2022-09-01T09:03:08;6.85;;;6.25;;
11618;SDS011;5865;48.776;9.280;2022-09-01T09:05:45;7.10;;;6.50;;
11618;SDS011;5865;48.776;9.280;2022-09-01T09:08:32;6.63;;;5.93;;
11618;SDS011;5865;48.776;9.280;2022-09-01T09:11:17;5.50;;;5.00;;
11618;SDS011;5865;48.776;9.280;2022-09-01T09:13:59;6.10;;;5.50;;
11618;SDS011;5865;48.776;9.280;2022-09-01T09:16:31;6.10;;;5.32;;
11618;SDS011;5865;48.776;9.280;2022-09-01T09:19:06;6.00;;;4.82;;
11618;SDS011;5865;48.776;9.280;2022-09-01T09:21:37;6.65;;;5.78;;
11618;SDS011;5865;48.776;9.280;2022-09-01T09:24:08;5.97;;;5.38;;
11618;SDS011;5865;48.776;9.280;2022-09-01T09:26:38;5.57;;;5.07;;
11618;SDS011;5865;48.776;9.280;2022-09-01T09:29:05;6.30;;;5.13;;
11618;SDS011;5865;48.776;9.280;2022-09-01T09:31:33;6.68;;;5.40;;
11618;SDS011;5865;48.776;9.280;2022-09-01T09:34:14;5.63;;;4.97;;
11618;SDS011;5865;48.776;9.280;2022-09-01T09:36:43;5.30;;;4.75;;
11618;SDS011;5865;48.776;9.280;2022-09-01T09:39:11;5.25;;;4.75;;
11618;SDS011;5865;48.776;9.280;2022-09-01T09:41:42;4.82;;;4.40;;
11618;SDS011;5865;48.776;9.280;2022-09-01T09:44:27;4.47;;;4.07;;
11618;SDS011;5865;48.776;9.280;2022-09-01T09:46:57;4.75;;;4.32;;
11618;SDS011;5865;48.776;9.280;2022-09-01T09:49:27;4.97;;;4.47;;
11618;SDS011;5865;48.776;9.280;2022-09-01T09:51:56;4.63;;;4.22;;
11618;SDS011;5865;48.776;9.280;2022-09-01T09:54:39;4.65;;;4.25;;
11618;SDS011;5865;48.776;9.280;2022-09-01T09:57:23;4.20;;;3.80;;
11618;SDS011;5865;48.776;9.280;2022-09-01T09:59:53;3.90;;;3.60;;
11618;SDS011;5865;48.776;9.280;2022-09-01T10:02:24;4.30;;;3.90;;
11618;SDS011;5865;48.776;9.280;2022-09-01T10:04:58;4.10;;;3.70;;
11618;SDS011;5865;48.776;9.280;2022-09-01T10:07:29;4.40;;;3.80;;
11618;SDS011;5865;48.776;9.280;2022-09-01T10:09:58;3.75;;;3.42;;
11618;SDS011;5865;48.776;9.280;2022-09-01T10:12:27;5.05;;;3.50;;
11618;SDS011;5865;48.776;9.280;2022-09-01T10:14:57;5.28;;;3.70;;
11618;SDS011;5865;48.776;9.280;2022-09-01T10:17:29;3.60;;;3.30;;
11618;SDS011;5865;48.776;9.280;2022-09-01T10:20:03;3.60;;;3.30;;
11618;SDS011;5865;48.776;9.280;2022-09-01T10:22:34;3.53;;;3.22;;
11618;SDS011;5865;48.776;9.280;2022-09-01T10:25:04;4.13;;;3.40;;
11618;SDS011;5865;48.776;9.280;2022-09-01T10:27:34;3.30;;;3.00;;
11618;SDS011;5865;48.776;9.280;2022-09-01T10:30:04;3.50;;;3.20;;
11618;SDS011;5865;48.776;9.280;2022-09-01T10:32:34;3.58;;;3.10;;
11618;SDS011;5865;48.776;9.280;2022-09-01T10:35:07;3.25;;;2.90;;
11618;SDS011;5865;48.776;9.280;2022-09-01T10:37:40;2.95;;;2.53;;
11618;SDS011;5865;48.776;9.280;2022-09-01T10:40:09;2.88;;;2.60;;
11618;SDS011;5865;48.776;9.280;2022-09-01T10:42:46;3.00;;;2.70;;
11618;SDS011;5865;48.776;9.280;2022-09-01T10:45:19;3.50;;;2.80;;
11618;SDS011;5865;48.776;9.280;2022-09-01T10:47:56;3.60;;;3.03;;
11618;SDS011;5865;48.776;9.280;2022-09-01T10:53:57;3.45;;;3.15;;
11618;SDS011;5865;48.776;9.280;2022-09-01T10:56:25;4.57;;;3.40;;
11618;SDS011;5865;48.776;9.280;2022-09-01T10:59:04;3.10;;;2.90;;
11618;SDS011;5865;48.776;9.280;2022-09-01T11:07:40;3.40;;;3.10;;
11618;SDS011;5865;48.776;9.280;2022-09-01T11:10:22;3.35;;;3.08;;
11618;SDS011;5865;48.776;9.280;2022-09-01T11:13:17;4.28;;;3.50;;
11618;SDS011;5865;48.776;9.280;2022-09-01T11:19:15;3.00;;;2.80;;
11618;SDS011;5865;48.776;9.280;2022-09-01T11:22:02;3.25;;;2.72;;
11618;SDS011;5865;48.776;9.280;2022-09-01T11:24:50;2.78;;;2.58;;
11618;SDS011;5865;48.776;9.280;2022-09-01T11:30:23;3.10;;;2.80;;
11618;SDS011;5865;48.776;9.280;2022-09-01T11:32:58;2.90;;;2.60;;
11618;SDS011;5865;48.776;9.280;2022-09-01T11:35:34;2.70;;;2.50;;
11618;SDS011;5865;48.776;9.280;2022-09-01T11:38:03;2.80;;;2.60;;
11618;SDS011;5865;48.776;9.280;2022-09-01T11:40:33;3.35;;;2.90;;
11618;SDS011;5865;48.776;9.280;2022-09-01T11:43:02;2.80;;;2.60;;
11618;SDS011;5865;48.776;9.280;2022-09-01T11:45:32;3.00;;;2.70;;
11618;SDS011;5865;48.776;9.280;2022-09-01T11:48:08;2.83;;;2.63;;
11618;SDS011;5865;48.776;9.280;2022-09-01T11:50:39;2.70;;;2.50;;
11618;SDS011;5865;48.776;9.280;2022-09-01T11:53:07;2.90;;;2.70;;
11618;SDS011;5865;48.776;9.280;2022-09-01T11:55:38;3.10;;;2.90;;
11618;SDS011;5865;48.776;9.280;2022-09-01T11:58:13;2.72;;;2.53;;
11618;SDS011;5865;48.776;9.280;2022-09-01T12:00:55;2.83;;;2.63;;
11618;SDS011;5865;48.776;9.280;2022-09-01T12:03:37;2.55;;;2.35;;
11618;SDS011;5865;48.776;9.280;2022-09-01T12:06:06;3.15;;;2.63;;
11618;SDS011;5865;48.776;9.280;2022-09-01T12:08:35;2.90;;;2.60;;
11618;SDS011;5865;48.776;9.280;2022-09-01T12:11:05;3.33;;;2.95;;
11618;SDS011;5865;48.776;9.280;2022-09-01T12:13:35;3.75;;;2.80;;
11618;SDS011;5865;48.776;9.280;2022-09-01T12:16:03;3.05;;;2.78;;
11618;SDS011;5865;48.776;9.280;2022-09-01T12:18:33;3.40;;;3.10;;
11618;SDS011;5865;48.776;9.280;2022-09-01T12:21:05;3.05;;;2.70;;
11618;SDS011;5865;48.776;9.280;2022-09-01T12:23:34;2.80;;;2.58;;
11618;SDS011;5865;48.776;9.280;2022-09-01T12:26:05;2.83;;;2.63;;
11618;SDS011;5865;48.776;9.280;2022-09-01T12:28:35;3.03;;;2.45;;
11618;SDS011;5865;48.776;9.280;2022-09-01T12:31:11;3.03;;;2.72;;
11618;SDS011;5865;48.776;9.280;2022-09-01T12:33:41;2.78;;;2.58;;
11618;SDS011;5865;48.776;9.280;2022-09-01T12:36:12;2.95;;;2.65;;
11618;SDS011;5865;48.776;9.280;2022-09-01T12:38:41;2.72;;;2.53;;
11618;SDS011;5865;48.776;9.280;2022-09-01T12:41:21;3.13;;;2.78;;
11618;SDS011;5865;48.776;9.280;2022-09-01T12:43:57;4.07;;;2.80;;
11618;SDS011;5865;48.776;9.280;2022-09-01T12:47:06;2.95;;;2.75;;
11618;SDS011;5865;48.776;9.280;2022-09-01T12:49:36;3.95;;;2.38;;
11618;SDS011;5865;48.776;9.280;2022-09-01T12:52:14;2.88;;;2.40;;
11618;SDS011;5865;48.776;9.280;2022-09-01T12:54:50;3.55;;;2.60;;
11618;SDS011;5865;48.776;9.280;2022-09-01T12:57:32;3.03;;;2.83;;
11618;SDS011;5865;48.776;9.280;2022-09-01T13:00:08;3.10;;;2.72;;
11618;SDS011;5865;48.776;9.280;2022-09-01T13:02:44;3.42;;;3.13;;
11618;SDS011;5865;48.776;9.280;2022-09-01T13:05:21;2.92;;;2.72;;
11618;SDS011;5865;48.776;9.280;2022-09-01T13:07:51;2.90;;;2.70;;
11618;SDS011;5865;48.776;9.280;2022-09-01T13:10:20;2.97;;;2.78;;
11618;SDS011;5865;48.776;9.280;2022-09-01T13:13:01;2.92;;;2.72;;
11618;SDS011;5865;48.776;9.280;2022-09-01T13:24:49;2.60;;;2.40;;
11618;SDS011;5865;48.776;9.280;2022-09-01T13:27:30;3.30;;;2.70;;
11618;SDS011;5865;48.776;9.280;2022-09-01T13:30:12;3.45;;;3.15;;
11618;SDS011;5865;48.776;9.280;2022-09-01T13:32:40;3.00;;;2.72;;
11618;SDS011;5865;48.776;9.280;2022-09-01T13:35:08;2.70;;;2.50;;
11618;SDS011;5865;48.776;9.280;2022-09-01T13:37:37;2.83;;;2.35;;
11618;SDS011;5865;48.776;9.280;2022-09-01T13:40:04;3.35;;;2.30;;
11618;SDS011;5865;48.776;9.280;2022-09-01T13:42:39;2.92;;;2.50;;
11618;SDS011;5865;48.776;9.280;2022-09-01T13:45:07;2.53;;;2.33;;
11618;SDS011;5865;48.776;9.280;2022-09-01T13:47:37;4.13;;;2.42;;
11618;SDS011;5865;48.776;9.280;2022-09-01T13:50:04;2.60;;;2.40;;
11618;SDS011;5865;48.776;9.280;2022-09-01T13:52:32;2.42;;;2.22;;
11618;SDS011;5865;48.776;9.280;2022-09-01T13:55:00;2.65;;;2.42;;
11618;SDS011;5865;48.776;9.280;2022-09-01T13:57:28;2.78;;;2.15;;
11618;SDS011;5865;48.776;9.280;2022-09-01T14:00:09;2.13;;;2.00;;
11618;SDS011;5865;48.776;9.280;2022-09-01T14:02:42;2.10;;;2.00;;
11618;SDS011;5865;48.776;9.280;2022-09-01T14:05:14;2.58;;;2.38;;
11618;SDS011;5865;48.776;9.280;2022-09-01T14:07:42;2.42;;;2.22;;
11618;SDS011;5865;48.776;9.280;2022-09-01T14:10:23;2.97;;;2.70;;
11618;SDS011;5865;48.776;9.280;2022-09-01T14:12:51;5.15;;;2.22;;
11618;SDS011;5865;48.776;9.280;2022-09-01T14:15:19;2.58;;;2.30;;
11618;SDS011;5865;48.776;9.280;2022-09-01T14:17:47;2.30;;;2.10;;
11618;SDS011;5865;48.776;9.280;2022-09-01T14:20:16;2.50;;;2.30;;
11618;SDS011;5865;48.776;9.280;2022-09-01T14:22:44;2.20;;;2.00;;
11618;SDS011;5865;48.776;9.280;2022-09-01T14:25:13;4.38;;;2.38;;
11618;SDS011;5865;48.776;9.280;2022-09-01T14:27:42;2.28;;;2.08;;
11618;SDS011;5865;48.776;9.280;2022-09-01T14:30:11;4.22;;;1.90;;
11618;SDS011;5865;48.776;9.280;2022-09-01T14:32:50;2.83;;;2.20;;
11618;SDS011;5865;48.776;9.280;2022-09-01T14:35:32;3.03;;;2.15;;
11618;SDS011;5865;48.776;9.280;2022-09-01T14:37:59;3.65;;;2.10;;
11618;SDS011;5865;48.776;9.280;2022-09-01T14:40:28;2.50;;;2.25;;
11618;SDS011;5865;48.776;9.280;2022-09-01T14:42:55;2.53;;;2.13;;
11618;SDS011;5865;48.776;9.280;2022-09-01T14:45:23;2.72;;;1.88;;
11618;SDS011;5865;48.776;9.280;2022-09-01T14:47:52;2.05;;;1.85;;
11618;SDS011;5865;48.776;9.280;2022-09-01T14:50:21;1.88;;;1.77;;
11618;SDS011;5865;48.776;9.280;2022-09-01T14:52:49;1.92;;;1.80;;
11618;SDS011;5865;48.776;9.280;2022-09-01T14:55:18;2.25;;;1.92;;
11618;SDS011;5865;48.776;9.280;2022-09-01T15:01:01;2.13;;;1.92;;
11618;SDS011;5865;48.776;9.280;2022-09-01T15:03:30;2.75;;;2.17;;
11618;SDS011;5865;48.776;9.280;2022-09-01T15:05:57;2.15;;;1.98;;
11618;SDS011;5865;48.776;9.280;2022-09-01T15:08:24;2.05;;;1.90;;
11618;SDS011;5865;48.776;9.280;2022-09-01T15:10:51;2.40;;;2.10;;
11618;SDS011;5865;48.776;9.280;2022-09-01T15:13:18;2.20;;;2.10;;
11618;SDS011;5865;48.776;9.280;2022-09-01T15:15:45;2.10;;;1.95;;
11618;SDS011;5865;48.776;9.280;2022-09-01T15:18:14;2.38;;;2.17;;
11618;SDS011;5865;48.776;9.280;2022-09-01T15:20:55;2.08;;;1.98;;
11618;SDS011;5865;48.776;9.280;2022-09-01T15:23:36;2.53;;;2.33;;
11618;SDS011;5865;48.776;9.280;2022-09-01T15:26:05;2.30;;;2.10;;
11618;SDS011;5865;48.776;9.280;2022-09-01T15:28:46;2.83;;;2.30;;
11618;SDS011;5865;48.776;9.280;2022-09-01T15:31:28;2.33;;;2.10;;
11618;SDS011;5865;48.776;9.280;2022-09-01T15:34:01;2.40;;;2.13;;
11618;SDS011;5865;48.776;9.280;2022-09-01T15:36:42;2.60;;;2.10;;
11618;SDS011;5865;48.776;9.280;2022-09-01T15:39:24;3.05;;;2.13;;
11618;SDS011;5865;48.776;9.280;2022-09-01T15:41:51;2.03;;;1.92;;
11618;SDS011;5865;48.776;9.280;2022-09-01T15:44:19;1.95;;;1.83;;